Time;durP1;ratioP1;P1;durP2;ratioP2;P2;SDS_P1;SDS_P2;PMS_P1;PMS_P2;Temp;Humidity;BMP_temperature;BMP_pressure;BME280_temperature;BME280_humidity;BME280_pressure;Samples;Min_cycle;Max_cycle;Signal;HPM_P1;HPM_P2
2022/01/12 00:00:16;;;;;;;68.13;25.17;;;;;;;2.95;100.00;103785.28;5025011;28;20075;-83
2022/01/12 00:02:42;;;;;;;55.65;21.27;;;;;;;2.95;100.00;103785.28;5043396;28;20025;-83
2022/01/12 00:05:07;;;;;;;54.83;18.97;;;;;;;2.97;100.00;103793.22;5027357;28;20109;-83
2022/01/12 00:07:33;;;;;;;40.08;15.73;;;;;;;3.06;100.00;103792.59;5021626;28;20280;-82
2022/01/12 00:09:58;;;;;;;37.85;15.02;;;;;;;3.04;100.00;103789.91;5038380;28;20032;-82
2022/01/12 00:12:26;;;;;;;62.33;22.00;;;;;;;3.02;100.00;103786.34;5015956;28;20467;-82
2022/01/12 00:14:51;;;;;;;54.30;22.13;;;;;;;3.03;100.00;103776.69;5049013;28;20302;-82
2022/01/12 00:17:16;;;;;;;44.38;18.33;;;;;;;3.04;100.00;103762.66;5012611;28;20115;-82
2022/01/12 00:19:41;;;;;;;51.53;19.00;;;;;;;3.07;100.00;103765.34;5048567;28;20024;-83
2022/01/12 00:22:07;;;;;;;48.90;20.52;;;;;;;3.03;100.00;103755.59;5043639;28;20033;-83
2022/01/12 00:25:02;;;;;;;53.70;18.77;;;;;;;3.06;100.00;103750.41;5036020;28;20435;-85
2022/01/12 00:35:31;;;;;;;35.58;15.35;;;;;;;3.08;100.00;103753.97;5029765;28;20091;-83
2022/01/12 00:37:56;;;;;;;47.47;18.33;;;;;;;3.04;100.00;103758.25;5013035;28;20092;-83
2022/01/12 00:40:22;;;;;;;30.73;13.00;;;;;;;3.05;100.00;103772.34;5030383;28;20022;-83
2022/01/12 00:42:47;;;;;;;37.47;15.68;;;;;;;3.04;100.00;103775.84;5027457;28;20095;-83
2022/01/12 00:45:13;;;;;;;48.67;19.05;;;;;;;3.00;100.00;103782.75;5041402;28;20095;-83
2022/01/12 00:47:38;;;;;;;41.83;17.42;;;;;;;3.01;100.00;103781.91;5025057;28;20039;-83
2022/01/12 00:50:04;;;;;;;36.97;14.73;;;;;;;3.04;100.00;103781.09;5025632;28;20025;-83
2022/01/12 00:52:29;;;;;;;38.75;15.38;;;;;;;3.06;100.00;103772.38;5021685;28;20115;-83
2022/01/12 00:54:55;;;;;;;44.10;17.40;;;;;;;3.05;100.00;103775.00;5044688;28;20383;-83
2022/01/12 00:57:20;;;;;;;52.25;19.38;;;;;;;3.04;100.00;103778.47;5030413;28;20819;-83
2022/01/12 00:59:45;;;;;;;44.42;18.25;;;;;;;3.01;100.00;103774.88;5017895;28;20053;-83
2022/01/12 01:02:11;;;;;;;43.10;15.02;;;;;;;3.00;100.00;103778.38;5012609;28;20061;-83
2022/01/12 01:04:36;;;;;;;34.90;14.75;;;;;;;3.03;100.00;103776.69;5012500;28;20056;-83
2022/01/12 01:07:02;;;;;;;37.97;14.18;;;;;;;3.05;100.00;103767.97;5011622;28;20022;-83
2022/01/12 01:09:41;;;;;;;40.17;16.77;;;;;;;3.06;100.00;103758.31;5027561;28;20483;-84
2022/01/12 01:12:07;;;;;;;49.70;18.55;;;;;;;3.05;100.00;103753.88;5029286;28;20087;-83
2022/01/12 01:14:49;;;;;;;49.35;18.40;;;;;;;3.04;100.00;103760.00;5020307;28;20041;-84
2022/01/12 01:25:32;;;;;;;35.28;12.98;;;;;;;3.09;100.00;103755.75;5041391;28;20032;-84
2022/01/12 01:28:01;;;;;;;50.88;21.30;;;;;;;3.05;100.00;103759.16;5029325;28;20248;-84
2022/01/12 01:30:26;;;;;;;55.50;20.77;;;;;;;3.03;100.00;103751.19;5041714;28;20489;-84
2022/01/12 01:32:52;;;;;;;47.65;17.33;;;;;;;3.00;100.00;103754.63;5030427;28;20053;-84
2022/01/12 01:35:18;;;;;;;56.67;21.25;;;;;;;3.00;100.00;103767.81;5033286;28;20630;-84
2022/01/12 01:37:44;;;;;;;50.03;18.33;;;;;;;2.99;100.00;103773.94;5022552;28;20533;-84
2022/01/12 01:40:11;;;;;;;55.03;21.23;;;;;;;3.00;100.00;103777.50;5040989;28;20167;-84
2022/01/12 01:53:51;;;;;;;50.05;19.33;;;;;;;3.10;100.00;103827.03;5046350;28;20080;-84
2022/01/12 01:56:19;;;;;;;57.60;20.75;;;;;;;3.11;100.00;103838.47;5012910;28;20469;-84
2022/01/12 01:58:45;;;;;;;60.25;21.45;;;;;;;3.12;100.00;103858.72;5016529;28;20082;-84
2022/01/12 02:01:10;;;;;;;50.87;18.53;;;;;;;3.14;100.00;103865.81;5033054;28;20035;-84
2022/01/12 02:03:36;;;;;;;57.25;20.83;;;;;;;3.17;100.00;103865.00;5028106;28;20276;-85
2022/01/12 02:06:04;;;;;;;49.22;18.55;;;;;;;3.19;100.00;103871.25;5039586;28;20022;-84
2022/01/12 02:08:30;;;;;;;59.47;22.23;;;;;;;3.21;100.00;103877.47;5031372;28;20029;-85
2022/01/12 02:10:57;;;;;;;53.13;20.25;;;;;;;3.21;100.00;103877.47;5036474;28;20465;-84
2022/01/12 02:13:23;;;;;;;55.50;21.38;;;;;;;3.21;100.00;103871.28;5035436;28;20032;-85
2022/01/12 02:15:49;;;;;;;58.33;21.13;;;;;;;3.24;100.00;103874.91;5035765;28;20466;-85
2022/01/12 02:40:07;;;;;;;59.95;17.98;;;;;;;3.24;100.00;103888.09;5031838;28;20044;-85
2022/01/12 02:42:33;;;;;;;66.63;22.55;;;;;;;3.25;100.00;103897.78;5049719;28;20492;-85
2022/01/12 02:50:45;;;;;;;68.53;21.95;;;;;;;3.26;100.00;103889.03;5031781;28;20171;-85
2022/01/12 02:55:56;;;;;;;81.70;25.08;;;;;;;3.27;100.00;103890.81;5045184;28;20055;-85
2022/01/12 02:58:21;;;;;;;83.88;24.52;;;;;;;3.28;100.00;103892.63;5049284;28;20029;-85
2022/01/12 03:03:22;;;;;;;71.65;23.33;;;;;;;3.29;100.00;103885.59;5048548;28;20040;-85
2022/01/12 03:05:56;;;;;;;43.38;14.98;;;;;;;3.33;100.00;103885.72;5033249;28;20030;-85
2022/01/12 03:08:24;;;;;;;81.63;25.40;;;;;;;3.31;100.00;103878.63;5050257;28;20028;-84
2022/01/12 03:10:49;;;;;;;83.90;25.08;;;;;;;3.30;100.00;103871.56;5031713;28;20017;-85
2022/01/12 03:13:15;;;;;;;76.53;23.42;;;;;;;3.31;100.00;103861.03;5032194;28;20024;-85
2022/01/12 03:15:41;;;;;;;53.47;18.05;;;;;;;3.37;100.00;103856.78;5031684;28;20044;-85
2022/01/12 03:18:06;;;;;;;43.45;14.15;;;;;;;3.38;100.00;103874.38;5034235;28;20393;-84
2022/01/12 03:20:32;;;;;;;82.75;24.65;;;;;;;3.37;100.00;103884.06;5048060;28;20021;-84
2022/01/12 03:22:58;;;;;;;89.25;24.55;;;;;;;3.35;100.00;103898.06;5034116;28;20024;-83
2022/01/12 03:25:23;;;;;;;91.80;24.45;;;;;;;3.33;100.00;103903.31;5031125;28;20028;-84
2022/01/12 03:27:49;;;;;;;89.38;25.02;;;;;;;3.33;100.00;103906.84;5033851;28;20033;-84
2022/01/12 03:30:15;;;;;;;96.53;25.63;;;;;;;3.35;100.00;103906.88;5021479;28;20025;-84
2022/01/12 03:32:46;;;;;;;52.10;17.20;;;;;;;3.41;100.00;103909.69;5034008;28;20021;-84
2022/01/12 03:35:24;;;;;;;102.80;27.33;;;;;;;3.42;100.00;103918.50;5032068;28;20497;-85
2022/01/12 03:38:19;;;;;;;88.38;25.75;;;;;;;3.40;100.00;103912.28;5035480;28;20028;-85
2022/01/12 03:40:38;;;;;;;108.88;26.23;;;;;;;3.38;100.00;103912.25;5047125;28;20077;-85
2022/01/12 03:43:03;;;;;;;101.93;25.73;;;;;;;3.37;100.00;103912.22;5031315;28;20053;-85
2022/01/12 03:45:28;;;;;;;102.90;27.55;;;;;;;3.38;100.00;103914.88;5048342;28;20105;-85
2022/01/12 03:47:54;;;;;;;103.47;25.88;;;;;;;3.38;100.00;103917.53;5033658;28;20108;-85
2022/01/12 03:50:19;;;;;;;105.25;26.92;;;;;;;3.37;100.00;103918.38;5029664;28;20381;-85
2022/01/12 03:52:44;;;;;;;118.25;28.42;;;;;;;3.38;100.00;103922.81;5050395;28;20049;-85
2022/01/12 03:55:10;;;;;;;131.30;29.20;;;;;;;3.42;100.00;103923.78;5020669;28;20063;-85
2022/01/12 03:57:35;;;;;;;121.68;28.60;;;;;;;3.40;100.00;103922.84;5036163;28;20311;-85
2022/01/12 04:00:03;;;;;;;126.07;29.30;;;;;;;3.40;100.00;103928.13;5032108;28;20029;-85
2022/01/12 04:02:29;;;;;;;133.75;28.92;;;;;;;3.42;100.00;103923.78;5032083;28;20393;-85
2022/01/12 04:10:15;;;;;;;121.35;26.05;;;;;;;3.43;100.00;103907.09;5045838;28;20040;-85
2022/01/12 04:12:41;;;;;;;64.80;18.42;;;;;;;3.42;100.00;103907.94;5029935;28;20021;-84
2022/01/12 04:15:07;;;;;;;133.52;28.10;;;;;;;3.43;100.00;103901.81;5030105;28;20037;-84
2022/01/12 04:17:32;;;;;;;101.15;22.25;;;;;;;3.40;100.00;103899.09;5029521;28;20040;-84
2022/01/12 04:20:00;;;;;;;101.07;21.73;;;;;;;3.34;100.00;103913.00;5040668;28;21127;-84
2022/01/12 04:25:09;;;;;;;101.05;23.23;;;;;;;3.31;100.00;103915.56;5042032;28;20488;-85
2022/01/12 04:27:36;;;;;;;74.45;17.15;;;;;;;3.28;100.00;103928.66;5023649;28;20025;-84
2022/01/12 04:30:01;;;;;;;;;;;;;;;3.26;100.00;103933.88;5034896;28;20365;-84
2022/01/12 04:32:27;;;;;;;109.87;23.80;;;;;;;3.24;100.00;103939.97;5046432;28;20043;-85
2022/01/12 04:34:52;;;;;;;111.68;23.85;;;;;;;3.24;100.00;103946.13;5029760;28;20045;-85
2022/01/12 04:37:18;;;;;;;88.43;20.88;;;;;;;3.23;100.00;103944.34;5013133;28;20072;-84
2022/01/12 04:39:43;;;;;;;186.50;30.42;;;;;;;3.21;100.00;103934.59;5039310;28;20029;-84
2022/01/12 04:42:08;;;;;;;83.35;20.40;;;;;;;3.16;100.00;103926.53;5031612;28;20041;-84
2022/01/12 04:44:39;;;;;;;89.78;23.42;;;;;;;3.23;100.00;103923.22;5035520;28;20032;-84
2022/01/12 04:47:08;;;;;;;95.72;23.48;;;;;;;3.19;100.00;103926.63;5016264;28;20025;-85
2022/01/12 04:52:02;;;;;;;61.17;16.73;;;;;;;3.05;100.00;103922.69;5048701;28;20029;-84
2022/01/12 04:54:27;;;;;;;40.15;13.57;;;;;;;2.98;100.00;103927.78;5055842;28;20025;-84
2022/01/12 04:56:52;;;;;;;56.97;17.07;;;;;;;2.91;100.00;103920.50;5045280;28;20020;-85
2022/01/12 04:59:18;;;;;;;43.77;13.27;;;;;;;2.90;100.00;103918.72;5046958;28;20278;-84
2022/01/12 05:01:51;;;;;;;68.18;17.33;;;;;;;2.86;100.00;103927.38;5047822;28;20340;-85
2022/01/12 05:07:26;;;;;;;51.75;14.27;;;;;;;2.81;100.00;103928.97;5075545;28;20031;-86
2022/01/12 05:12:47;;;;;;;68.32;17.90;;;;;;;2.79;100.00;103935.94;5039248;28;20029;-86
2022/01/12 05:12:52;;;;;;;61.78;18.08;;;;;;;2.77;100.00;103945.53;5068903;28;20070;-85
2022/01/12 05:15:26;;;;;;;61.35;15.68;;;;;;;2.76;100.00;103955.19;5060052;28;20024;-85
2022/01/12 05:17:52;;;;;;;59.72;17.05;;;;;;;2.74;100.00;103951.59;5049643;28;20033;-84
2022/01/12 05:20:17;;;;;;;83.07;19.30;;;;;;;2.73;100.00;103952.44;5053971;28;20089;-84
2022/01/12 05:22:43;;;;;;;47.22;15.43;;;;;;;2.72;100.00;103955.03;5051022;28;20021;-84
2022/01/12 05:25:08;;;;;;;51.53;15.85;;;;;;;2.68;100.00;103960.19;5038114;28;20029;-85
2022/01/12 05:27:33;;;;;;;187.32;28.30;;;;;;;2.65;100.00;103953.94;5038464;28;20032;-84
2022/01/12 05:29:59;;;;;;;61.15;19.98;;;;;;;2.64;100.00;103957.44;5035439;28;20619;-85
2022/01/12 05:32:26;;;;;;;54.67;16.63;;;;;;;2.60;100.00;103953.81;5059663;28;20476;-84
2022/01/12 05:34:57;;;;;;;34.22;13.20;;;;;;;2.55;100.00;103954.50;5039126;28;20028;-85
2022/01/12 05:37:22;;;;;;;35.47;13.68;;;;;;;2.54;100.00;103961.47;5047324;28;20077;-84
2022/01/12 05:39:48;;;;;;;30.85;13.13;;;;;;;2.47;100.00;103963.03;5056438;28;20033;-84
2022/01/12 05:42:13;;;;;;;52.40;16.48;;;;;;;2.41;100.00;103964.56;5039125;28;20032;-84
2022/01/12 05:44:40;;;;;;;40.83;13.43;;;;;;;2.37;100.00;103974.09;5053330;28;20032;-84
2022/01/12 05:47:06;;;;;;;42.60;13.75;;;;;;;2.35;100.00;103974.06;5056178;28;20020;-84
2022/01/12 05:49:34;;;;;;;132.23;22.60;;;;;;;2.32;100.00;103971.31;5039269;28;20036;-83
2022/01/12 05:52:00;;;;;;;122.22;24.23;;;;;;;2.27;100.00;103971.97;5039162;28;20031;-84
2022/01/12 05:54:25;;;;;;;55.20;19.33;;;;;;;2.21;100.00;103989.38;5055661;28;20051;-84
2022/01/12 05:56:52;;;;;;;34.13;13.93;;;;;;;2.18;100.00;103988.38;5055757;28;20055;-85
2022/01/12 05:59:17;;;;;;;61.65;20.98;;;;;;;2.13;100.00;103984.69;5055894;28;20063;-85
2022/01/12 06:01:43;;;;;;;38.92;14.95;;;;;;;2.11;100.00;103989.00;5048743;28;20055;-84
2022/01/12 06:04:08;;;;;;;59.03;19.05;;;;;;;2.07;100.00;103984.47;5063012;28;20055;-85
2022/01/12 06:06:33;;;;;;;42.40;14.00;;;;;;;2.03;100.00;103981.72;5038854;28;20531;-85
2022/01/12 06:08:59;;;;;;;83.30;20.83;;;;;;;2.00;100.00;103996.50;5056978;28;20404;-85
2022/01/12 06:11:24;;;;;;;37.92;12.68;;;;;;;1.98;100.00;104007.00;5068435;28;20024;-86
2022/01/12 06:13:51;;;;;;;39.78;13.10;;;;;;;1.97;100.00;104014.81;5060818;28;20031;-86
2022/01/12 06:16:17;;;;;;;42.33;14.82;;;;;;;1.94;100.00;104028.75;5045771;28;20040;-84
2022/01/12 06:18:42;;;;;;;33.08;12.80;;;;;;;1.93;100.00;104026.97;5060214;28;20119;-85
2022/01/12 06:21:07;;;;;;;30.70;12.55;;;;;;;1.89;100.00;104025.97;5063226;28;20109;-85
2022/01/12 06:23:33;;;;;;;36.15;14.50;;;;;;;1.87;100.00;104034.63;5045224;28;20115;-85
2022/01/12 06:25:58;;;;;;;105.07;20.75;;;;;;;1.83;100.00;104033.63;5052344;28;20402;-85
2022/01/12 06:31:10;;;;;;;41.47;16.65;;;;;;;1.79;100.00;104036.09;5070592;28;20055;-86
2022/01/12 06:33:40;;;;;;;29.30;12.27;;;;;;;1.78;100.00;104040.47;5048464;28;20024;-85
2022/01/12 06:36:06;;;;;;;23.25;10.00;;;;;;;1.74;100.00;104042.09;5052879;28;20480;-86
2022/01/12 06:38:31;;;;;;;33.33;13.10;;;;;;;1.72;100.00;104035.84;5038675;28;20043;-85
2022/01/12 06:40:57;;;;;;;18.40;8.60;;;;;;;1.72;100.00;104041.13;5043245;28;20480;-85
2022/01/12 06:43:22;;;;;;;19.52;8.55;;;;;;;1.71;100.00;104044.59;5063105;28;20059;-86
2022/01/12 06:45:47;;;;;;;16.92;8.88;;;;;;;1.70;100.00;104042.78;5044711;28;20028;-85
2022/01/12 06:48:13;;;;;;;37.53;14.05;;;;;;;1.69;100.00;104045.38;5047031;28;20012;-86
2022/01/12 06:50:38;;;;;;;32.50;13.45;;;;;;;1.66;100.00;104048.78;5048075;28;20058;-86
2022/01/12 06:53:03;;;;;;;28.90;12.32;;;;;;;1.61;100.00;104052.97;5063362;28;20404;-85
2022/01/12 06:55:29;;;;;;;35.67;14.43;;;;;;;1.56;100.00;104063.34;5045302;28;20473;-83
2022/01/12 06:57:54;;;;;;;36.78;15.80;;;;;;;1.57;100.00;104074.75;5056110;28;20271;-83
2022/01/12 07:00:19;;;;;;;36.87;14.70;;;;;;;1.59;100.00;104073.06;5038723;28;20025;-83
2022/01/12 07:02:45;;;;;;;43.13;16.95;;;;;;;1.61;100.00;104083.66;5037833;28;20098;-84
2022/01/12 07:05:10;;;;;;;52.40;19.07;;;;;;;1.63;100.00;104081.97;5037314;28;20480;-85
2022/01/12 07:07:35;;;;;;;46.22;19.13;;;;;;;1.63;100.00;104097.78;5038348;28;20274;-85
2022/01/12 07:10:02;;;;;;;45.55;17.90;;;;;;;1.67;100.00;104097.97;5036046;28;20090;-85
2022/01/12 07:12:28;;;;;;;53.13;19.65;;;;;;;1.71;100.00;104093.72;5038030;28;20020;-85
2022/01/12 07:14:53;;;;;;;65.95;21.10;;;;;;;1.73;100.00;104085.03;5038089;28;20041;-85
2022/01/12 07:17:18;;;;;;;41.83;16.90;;;;;;;1.76;100.00;104088.63;5037898;28;20025;-84
2022/01/12 07:19:44;;;;;;;42.35;15.93;;;;;;;1.73;100.00;104086.75;5034674;28;20116;-85
2022/01/12 07:22:09;;;;;;;55.10;19.98;;;;;;;1.70;100.00;104090.16;5067945;28;20136;-85
2022/01/12 07:24:34;;;;;;;53.20;21.02;;;;;;;1.68;100.00;104091.88;5065733;28;20115;-85
2022/01/12 07:27:00;;;;;;;46.20;16.80;;;;;;;1.67;100.00;104082.16;5053545;28;20078;-85
2022/01/12 07:29:26;;;;;;;43.53;14.18;;;;;;;1.66;100.00;104084.72;5058574;28;20107;-85
2022/01/12 07:31:51;;;;;;;46.35;16.60;;;;;;;1.65;100.00;104085.59;5036421;28;20024;-86
2022/01/12 07:34:16;;;;;;;47.60;18.92;;;;;;;1.66;100.00;104089.97;5036148;28;20025;-85
2022/01/12 07:36:42;;;;;;;56.50;18.20;;;;;;;1.67;100.00;104095.31;5052867;28;20024;-85
2022/01/12 07:39:08;;;;;;;47.85;17.40;;;;;;;1.69;100.00;104101.53;5036228;28;20115;-84
2022/01/12 07:41:34;;;;;;;46.20;15.27;;;;;;;1.74;100.00;104102.63;5053771;28;20480;-85
2022/01/12 07:43:59;;;;;;;61.45;18.55;;;;;;;1.74;100.00;104107.88;5053648;28;20051;-85
2022/01/12 07:46:24;;;;;;;45.47;14.68;;;;;;;1.76;100.00;104114.94;5056261;28;20392;-85
2022/01/12 07:48:50;;;;;;;39.90;15.60;;;;;;;1.76;100.00;104109.69;5063975;28;20028;-85
2022/01/12 07:51:15;;;;;;;84.10;19.08;;;;;;;1.82;100.00;104108.19;5071162;28;20381;-84
2022/01/12 07:53:41;;;;;;;64.90;18.35;;;;;;;1.83;100.00;104111.72;5053652;28;20064;-86
2022/01/12 07:56:06;;;;;;;49.80;13.48;;;;;;;1.88;100.00;104120.69;5036819;28;20556;-84
2022/01/12 07:58:31;;;;;;;68.45;18.67;;;;;;;1.84;100.00;104129.31;5037487;28;20568;-87
2022/01/12 08:00:57;;;;;;;36.83;14.00;;;;;;;1.83;100.00;104130.16;5037891;28;20419;-85
2022/01/12 08:03:22;;;;;;;70.65;18.95;;;;;;;1.80;100.00;104137.91;5039603;28;20048;-84
2022/01/12 08:05:49;;;;;;;66.82;18.33;;;;;;;1.82;100.00;104144.16;5038046;28;20028;-84
2022/01/12 08:08:15;;;;;;;82.05;19.17;;;;;;;1.81;100.00;104153.75;5060794;28;20032;-85
2022/01/12 08:10:40;;;;;;;73.33;17.30;;;;;;;1.84;100.00;104151.25;5052931;28;20032;-84
2022/01/12 08:13:06;;;;;;;56.33;15.43;;;;;;;1.83;100.00;104157.34;5036280;28;20032;-83
2022/01/12 08:15:31;;;;;;;72.90;16.42;;;;;;;1.82;100.00;104166.09;5034084;28;20468;-82
2022/01/12 08:17:56;;;;;;;47.47;14.85;;;;;;;1.78;100.00;104165.91;5035627;28;20115;-82
2022/01/12 08:20:26;;;;;;;41.13;16.48;;;;;;;1.76;100.00;104157.06;5053463;28;20024;-83
2022/01/12 08:22:51;;;;;;;48.80;17.98;;;;;;;1.74;100.00;104162.25;5036708;28;20070;-83
2022/01/12 08:25:17;;;;;;;90.85;17.00;;;;;;;1.78;100.00;104165.91;5061789;28;20033;-83
2022/01/12 08:27:42;;;;;;;94.55;18.55;;;;;;;1.79;100.00;104167.69;5044770;28;20053;-83
2022/01/12 08:30:16;;;;;;;41.53;17.50;;;;;;;1.82;100.00;104168.72;5036416;28;20103;-83
2022/01/12 08:32:42;;;;;;;56.03;18.58;;;;;;;1.85;100.00;104167.94;5059868;28;20206;-83
2022/01/12 08:35:07;;;;;;;140.10;17.88;;;;;;;1.85;100.00;104167.94;5071940;28;20024;-83
2022/01/12 08:37:33;;;;;;;116.28;19.02;;;;;;;1.87;100.00;104176.81;5069868;28;20020;-82
2022/01/12 08:39:58;;;;;;;92.05;17.10;;;;;;;1.87;100.00;104188.25;5066594;28;20081;-82
2022/01/12 08:42:23;;;;;;;85.25;16.48;;;;;;;1.88;100.00;104184.75;5052758;28;20032;-82
2022/01/12 08:44:49;;;;;;;43.72;13.75;;;;;;;1.94;100.00;104193.75;5052486;28;20032;-82
2022/01/12 08:47:14;;;;;;;43.13;13.55;;;;;;;1.99;100.00;104198.34;5056472;28;20024;-82
2022/01/12 08:49:39;;;;;;;42.03;14.25;;;;;;;2.03;100.00;104204.66;5053427;28;20020;-82
2022/01/12 08:52:05;;;;;;;30.80;13.52;;;;;;;2.04;100.00;104209.97;5040593;28;20113;-83
2022/01/12 08:54:30;;;;;;;20.27;9.00;;;;;;;2.08;100.00;104199.53;5066169;28;20016;-83
2022/01/12 08:56:56;;;;;;;51.30;13.82;;;;;;;2.08;100.00;104208.38;5051179;28;20028;-82
2022/01/12 08:59:22;;;;;;;100.38;14.48;;;;;;;2.07;100.00;104214.47;5056755;28;20109;-82
2022/01/12 09:01:48;;;;;;;82.07;14.40;;;;;;;2.08;100.00;104218.91;5052158;28;20037;-82
2022/01/12 09:04:13;;;;;;;59.42;12.77;;;;;;;2.14;100.00;104213.88;5035557;28;20028;-82
2022/01/12 09:06:39;;;;;;;28.30;8.63;;;;;;;2.19;100.00;104221.94;5058570;28;20059;-81
2022/01/12 09:09:04;;;;;;;83.57;11.82;;;;;;;2.15;100.00;104227.91;5063987;28;20078;-81
2022/01/12 09:11:30;;;;;;;31.35;10.45;;;;;;;2.18;100.00;104235.97;5034674;28;20032;-80
2022/01/12 09:13:55;;;;;;;58.08;10.55;;;;;;;2.23;100.00;104234.38;5073266;28;20488;-82
2022/01/12 09:16:21;;;;;;;54.45;8.60;;;;;;;2.32;100.00;104234.75;5052394;28;20106;-81
2022/01/12 09:18:46;;;;;;;33.10;8.25;;;;;;;2.33;100.00;104239.19;5034993;28;20051;-81
2022/01/12 09:21:11;;;;;;;43.58;9.48;;;;;;;2.34;100.00;104247.97;5036133;28;20032;-83
2022/01/12 09:23:37;;;;;;;20.80;7.85;;;;;;;2.34;100.00;104253.25;5049626;28;20024;-81
2022/01/12 09:26:03;;;;;;;47.35;8.90;;;;;;;2.31;100.00;104254.03;5044818;28;20116;-81
2022/01/12 09:28:30;;;;;;;20.90;8.10;;;;;;;2.31;100.00;104259.31;5034594;28;20032;-81
2022/01/12 09:30:55;;;;;;;25.65;9.10;;;;;;;2.36;100.00;104263.03;5069583;28;20161;-81
2022/01/12 09:33:21;;;;;;;28.52;10.32;;;;;;;2.40;100.00;104269.31;5051267;28;20103;-84
2022/01/12 09:35:49;;;;;;;92.80;11.88;;;;;;;2.40;100.00;104268.41;5051175;28;20028;-84
2022/01/12 09:38:14;;;;;;;24.50;8.68;;;;;;;2.42;100.00;104269.38;5039190;28;20062;-83
2022/01/12 09:40:40;;;;;;;48.50;11.90;;;;;;;2.45;100.00;104274.78;5051713;28;20163;-83
2022/01/12 09:43:06;;;;;;;95.57;14.05;;;;;;;2.51;100.00;104281.16;5051153;28;20481;-83
2022/01/12 09:45:32;;;;;;;24.17;8.80;;;;;;;2.57;100.00;104275.25;5045764;28;20028;-83
2022/01/12 09:47:57;;;;;;;;;;;;;;;2.71;100.00;104277.50;5038255;28;20017;-83
2022/01/12 09:50:23;;;;;;;36.53;8.37;;;;;;;2.74;100.00;104280.25;5051184;28;19912;-83
2022/01/12 09:52:49;;;;;;;89.82;10.00;;;;;;;2.77;100.00;104285.63;5044888;28;20048;-83
2022/01/12 09:55:15;;;;;;;17.30;8.63;;;;;;;2.78;100.00;104282.16;5028259;28;20029;-84
2022/01/12 09:57:41;;;;;;;25.42;7.35;;;;;;;2.87;100.00;104285.16;5013882;28;20382;-83
2022/01/12 10:00:07;;;;;;;17.95;4.65;;;;;;;2.95;100.00;104272.28;5011963;28;20029;-81
2022/01/12 10:02:33;;;;;;;15.75;7.72;;;;;;;3.02;100.00;104266.38;5027295;28;20029;-81
2022/01/12 10:05:06;;;;;;;24.52;6.88;;;;;;;3.08;100.00;104286.78;5033210;28;20431;-81
2022/01/12 10:07:33;;;;;;;13.02;5.85;;;;;;;3.06;100.00;104293.75;5012163;28;20039;-81
2022/01/12 10:10:01;;;;;;;34.45;6.93;;;;;;;3.09;100.00;104288.56;5018368;28;20021;-81
2022/01/12 10:12:27;;;;;;;26.55;6.55;;;;;;;3.11;100.00;104295.69;5029945;28;20024;-81
2022/01/12 10:15:00;;;;;;;72.03;8.18;;;;;;;3.07;100.00;104301.72;5005621;28;20026;-81
2022/01/12 10:17:35;;;;;;;7.00;4.22;;;;;;;3.12;100.00;104307.16;5019424;28;20025;-81
2022/01/12 10:20:12;;;;;;;12.05;6.03;;;;;;;3.22;100.00;104308.41;5004087;28;20397;-81
2022/01/12 10:22:39;;;;;;;13.98;7.10;;;;;;;3.24;100.00;104296.16;5010514;28;20272;-81
2022/01/12 10:25:17;;;;;;;12.32;6.55;;;;;;;3.25;100.00;104285.66;5026788;28;20026;-82
2022/01/12 10:27:43;;;;;;;47.70;8.45;;;;;;;3.29;100.00;104282.31;5012535;28;20429;-83
2022/01/12 10:30:17;;;;;;;;;;;;;;;3.32;100.00;104281.50;4996887;28;20172;-82
2022/01/12 10:32:43;;;;;;;16.50;6.47;;;;;;;3.31;100.00;104275.31;5013001;28;20374;-83
2022/01/12 10:35:09;;;;;;;21.17;9.48;;;;;;;3.35;100.00;104270.16;5032311;28;20141;-82
2022/01/12 10:37:35;;;;;;;;;;;;;;;3.39;100.00;104266.75;5030662;28;20037;-81
2022/01/12 10:40:00;;;;;;;22.60;8.63;;;;;;;3.48;100.00;104270.66;5011822;28;19914;-82
2022/01/12 10:42:27;;;;;;;34.67;8.07;;;;;;;3.57;100.00;104277.06;5004401;28;20116;-83
2022/01/12 10:44:54;;;;;;;37.83;10.55;;;;;;;3.55;100.00;104270.84;5032767;28;20021;-88
2022/01/12 10:47:31;;;;;;;51.13;11.18;;;;;;;3.56;100.00;104262.09;5016304;28;20041;-87
2022/01/12 10:50:02;;;;;;;19.05;9.30;;;;;;;3.60;100.00;104272.78;5016270;28;20857;-87
2022/01/12 10:52:29;;;;;;;77.68;12.13;;;;;;;3.70;100.00;104271.38;5015375;28;20135;-88
2022/01/12 10:55:00;;;;;;;14.38;6.50;;;;;;;3.73;100.00;104283.78;5031473;28;20021;-88
2022/01/12 10:57:25;;;;;;;17.33;9.45;;;;;;;3.73;100.00;104289.94;5015588;28;20466;-88
2022/01/12 11:00:00;;;;;;;15.80;8.93;;;;;;;3.78;100.00;104298.03;5032565;28;20052;-88
2022/01/12 11:02:28;;;;;;;26.30;9.68;;;;;;;3.83;100.00;104291.19;5032053;28;20120;-87
2022/01/12 11:04:55;;;;;;;28.48;8.52;;;;;;;3.85;100.00;104283.28;5015612;28;20022;-88
2022/01/12 11:07:20;;;;;;;15.13;8.63;;;;;;;3.87;100.00;104279.84;5032436;28;20026;-88
2022/01/12 11:09:46;;;;;;;19.38;7.97;;;;;;;3.99;100.00;104275.81;5032318;28;20029;-88
2022/01/12 11:12:12;;;;;;;16.38;6.70;;;;;;;3.96;100.00;104282.81;5015686;28;20029;-87
2022/01/12 11:14:37;;;;;;;18.20;7.95;;;;;;;3.93;100.00;104273.88;5031955;28;20482;-88
2022/01/12 11:17:03;;;;;;;12.80;5.47;;;;;;;3.91;100.00;104268.53;5015466;28;20017;-88
2022/01/12 11:19:29;;;;;;;7.60;4.10;;;;;;;3.98;100.00;104258.19;5032192;28;20080;-88
2022/01/12 11:22:13;;;;;;;;;;;;;;;4.05;100.00;104260.19;5016040;28;20017;-88
2022/01/12 11:24:39;;;;;;;32.92;7.53;;;;;;;4.04;100.00;104255.75;5031857;28;19928;-89
2022/01/12 11:27:06;;;;;;;79.32;8.68;;;;;;;3.99;100.00;104266.16;5015774;28;20030;-89
2022/01/12 11:29:36;;;;;;;11.85;5.63;;;;;;;3.94;100.00;104258.06;5031200;28;20421;-88
2022/01/12 11:32:17;;;;;;;10.35;6.15;;;;;;;3.97;100.00;104249.34;5011090;28;20034;-88
2022/01/12 11:34:42;;;;;;;58.88;7.38;;;;;;;3.96;100.00;104255.47;5006462;28;20034;-85
2022/01/12 11:37:12;;;;;;;40.60;7.60;;;;;;;3.90;100.00;104245.63;5013211;28;20083;-88
2022/01/12 11:39:37;;;;;;;12.45;6.50;;;;;;;3.85;100.00;104241.03;4996543;28;20033;-90
2022/01/12 11:42:03;;;;;;;11.75;6.28;;;;;;;3.94;100.00;104244.88;5014719;28;20398;-92
2022/01/12 11:44:34;;;;;;;21.30;8.15;;;;;;;4.03;100.00;104240.72;4995582;28;20033;-82
2022/01/12 11:47:03;;;;;;;32.92;7.57;;;;;;;4.05;100.00;104239.03;5011459;28;20122;-83
2022/01/12 11:49:32;;;;;;;10.95;6.55;;;;;;;4.03;100.00;104244.25;4994993;28;20044;-83
2022/01/12 11:51:58;;;;;;;12.55;6.13;;;;;;;4.15;100.00;104245.50;5016097;28;20030;-82
2022/01/12 11:54:33;;;;;;;19.75;6.38;;;;;;;4.22;100.00;104243.09;5053712;28;20154;-83
2022/01/12 11:57:01;;;;;;;9.90;5.30;;;;;;;4.25;100.00;104247.59;5037389;28;20029;-84
2022/01/12 11:59:28;;;;;;;22.45;7.70;;;;;;;4.28;100.00;104243.31;5037307;28;20491;-83
2022/01/12 12:02:07;;;;;;;33.10;7.30;;;;;;;4.19;100.00;104237.72;5037385;28;20021;-83
2022/01/12 12:04:33;;;;;;;17.98;6.95;;;;;;;4.16;100.00;104242.91;5036957;28;20127;-83
2022/01/12 12:07:09;;;;;;;25.83;6.95;;;;;;;4.19;100.00;104235.09;5053954;28;20102;-82
2022/01/12 12:09:43;;;;;;;39.38;8.52;;;;;;;4.18;100.00;104229.72;5036900;28;20047;-83
2022/01/12 12:12:14;;;;;;;10.48;5.75;;;;;;;4.14;100.00;104227.84;5054160;28;20167;-84
2022/01/12 12:14:40;;;;;;;10.98;5.68;;;;;;;4.14;100.00;104225.22;5053399;28;20481;-83
2022/01/12 12:17:05;;;;;;;5.95;3.85;;;;;;;4.20;100.00;104223.66;5037540;28;20027;-82
2022/01/12 12:19:34;;;;;;;8.13;5.10;;;;;;;4.20;100.00;104221.03;5036915;28;20476;-82
2022/01/12 12:22:07;;;;;;;7.90;4.53;;;;;;;4.28;100.00;104227.44;5054073;28;20031;-81
2022/01/12 12:24:32;;;;;;;11.18;5.72;;;;;;;4.35;100.00;104224.97;5053246;28;20020;-81
2022/01/12 12:26:58;;;;;;;11.00;5.30;;;;;;;4.34;100.00;104226.72;5036823;28;20026;-81